createdAt,value
2022-07-28T00:00:28.550Z,82.67456
2022-07-28T00:05:30.065Z,83.11451
2022-07-28T00:10:32.793Z,86.76718
2022-07-28T00:15:34.278Z,85.13815
2022-07-28T00:20:35.718Z,87.58336
2022-07-28T00:25:37.200Z,88.18307
2022-07-28T00:30:38.783Z,87.70263
2022-07-28T00:35:40.450Z,89.77009
2022-07-28T00:40:50.166Z,88.8832
2022-07-28T00:45:51.752Z,89.17589
2022-07-28T00:50:53.565Z,83.84955
2022-07-28T00:56:06.353Z,82.65711
2022-07-28T01:01:08.424Z,90.54151
2022-07-28T01:06:09.856Z,91.25759
2022-07-28T01:11:11.889Z,89.17874
2022-07-28T01:16:13.349Z,87.37688
2022-07-28T01:21:14.841Z,86.48201
2022-07-28T01:26:16.291Z,84.30722
2022-07-28T01:31:17.887Z,86.48849
2022-07-28T01:36:19.390Z,87.28797
2022-07-28T01:41:21.097Z,88.37171
2022-07-28T01:46:22.836Z,90.33106
2022-07-28T01:51:24.322Z,88.19229
2022-07-28T01:56:25.929Z,90.2463
2022-07-28T02:01:27.479Z,91.06501
2022-07-28T02:06:29.152Z,92.32972
2022-07-28T02:11:32.204Z,90.35196
2022-07-28T02:16:33.859Z,86.85218
2022-07-28T02:21:36.330Z,85.63476
2022-07-28T02:26:38.031Z,85.1031
2022-07-28T02:31:40.499Z,80.73048
2022-07-28T02:36:43.581Z,81.89831
2022-07-28T02:41:47.948Z,79.99889
2022-07-28T02:46:49.488Z,80.97953
2022-07-28T02:51:51.135Z,82.23715
2022-07-28T02:56:53.446Z,83.82088
2022-07-28T03:01:55.914Z,86.51099
2022-07-28T03:06:57.411Z,84.54358
2022-07-28T03:12:00.922Z,85.84681
2022-07-28T03:17:02.507Z,86.96336
2022-07-28T03:22:04.442Z,84.10586
2022-07-28T03:27:06.546Z,83.50857
2022-07-28T03:32:08.019Z,87.21942
2022-07-28T03:37:10.033Z,83.741
2022-07-28T03:42:12.225Z,83.62053
2022-07-28T03:47:14.069Z,81.53115
2022-07-28T03:52:15.515Z,81.59164
2022-07-28T03:57:17.214Z,81.91147
2022-07-28T04:02:18.724Z,82.67991
2022-07-28T04:07:20.590Z,82.36724
2022-07-28T04:12:22.489Z,81.20268
2022-07-28T04:17:24.827Z,81.93338
2022-07-28T04:22:26.669Z,84.85174
2022-07-28T04:27:28.263Z,84.0108
2022-07-28T04:32:29.730Z,82.8711
2022-07-28T04:37:32.383Z,82.01229
2022-07-28T04:42:34.523Z,82.89036
2022-07-28T04:47:36.282Z,82.96284
2022-07-28T04:52:38.013Z,82.26007
2022-07-28T04:57:39.739Z,85.08868
2022-07-28T05:02:41.182Z,81.11399
2022-07-28T05:07:42.622Z,82.75111
2022-07-28T05:12:44.308Z,82.07828
2022-07-28T05:17:45.917Z,81.5353
2022-07-28T05:22:47.505Z,83.19322
2022-07-28T05:27:48.955Z,81.39227
2022-07-28T05:32:50.726Z,79.88666
2022-07-28T05:37:52.710Z,83.4117
2022-07-28T05:42:54.553Z,82.08495
2022-07-28T05:47:56.008Z,81.5526
2022-07-28T05:52:57.486Z,85.23636
2022-07-28T05:57:58.951Z,86.37512
2022-07-28T06:03:00.626Z,85.83743
2022-07-28T06:08:02.147Z,84.79837
2022-07-28T06:13:03.840Z,84.23544
2022-07-28T06:18:05.388Z,86.73335
2022-07-28T06:23:06.856Z,84.27714
2022-07-28T06:28:08.538Z,83.44443
2022-07-28T06:33:12.774Z,85.41588
2022-07-28T06:38:18.543Z,86.70916
2022-07-28T06:43:21.701Z,81.2356
2022-07-28T06:48:25.821Z,83.06186
2022-07-28T06:53:33.459Z,79.8873
2022-07-28T06:58:36.011Z,77.69849
2022-07-28T07:03:37.440Z,77.88389
2022-07-28T07:08:39.076Z,78.05048
2022-07-28T07:13:40.989Z,79.35312
2022-07-28T07:18:42.564Z,81.69301
2022-07-28T07:23:44.140Z,76.66885
2022-07-28T07:28:46.771Z,74.76746
2022-07-28T07:33:48.359Z,74.57453
2022-07-28T07:38:49.935Z,72.33786
2022-07-28T07:43:51.848Z,72.89217
2022-07-28T07:48:53.326Z,71.20505
2022-07-28T07:53:54.802Z,69.88867
2022-07-28T07:58:57.253Z,63.64871
2022-07-28T08:03:58.933Z,67.80556
2022-07-28T08:09:00.397Z,64.76821
2022-07-28T08:14:02.663Z,63.29235
2022-07-28T08:19:04.129Z,63.38938
2022-07-28T08:24:07.605Z,61.29316
2022-07-28T08:29:09.041Z,61.024
2022-07-28T08:34:29.866Z,59.06942
2022-07-28T08:39:35.018Z,61.45781
2022-07-28T08:44:36.689Z,59.00493
2022-07-28T08:49:39.363Z,60.85231
2022-07-28T08:54:42.551Z,52.99526
2022-07-28T08:59:44.239Z,52.63209
2022-07-28T09:04:45.784Z,48.37892
2022-07-28T09:09:47.243Z,49.25493
2022-07-28T09:14:49.034Z,49.10168
2022-07-28T09:19:50.837Z,47.39341
2022-07-28T09:24:52.514Z,46.14011
2022-07-28T09:29:54.027Z,44.3358
2022-07-28T09:34:55.598Z,44.52674
2022-07-28T09:39:57.017Z,44.22431
2022-07-28T09:45:21.262Z,43.15238
2022-07-28T09:50:24.394Z,43.0769
2022-07-28T09:55:25.837Z,44.63766
2022-07-28T10:00:27.903Z,44.11683
2022-07-28T10:05:30.169Z,43.47161
2022-07-28T10:10:32.179Z,41.44232
2022-07-28T10:15:34.138Z,40.43864
2022-07-28T10:20:35.666Z,40.87612
2022-07-28T10:25:37.361Z,37.44965
2022-07-28T10:30:39.271Z,36.14495
2022-07-28T10:35:52.519Z,36.39096
2022-07-28T10:40:56.998Z,36.59722
2022-07-28T10:46:05.594Z,36.32691
2022-07-28T10:51:08.534Z,35.30853
2022-07-28T10:56:10.214Z,36.22713
2022-07-28T11:01:26.663Z,36.57615
2022-07-28T11:06:47.811Z,38.13532
2022-07-28T11:11:49.245Z,40.72511
2022-07-28T11:16:51.591Z,41.67903
2022-07-28T11:21:53.060Z,47.2362
2022-07-28T11:26:54.551Z,46.91224
2022-07-28T11:31:56.219Z,48.81776
2022-07-28T11:36:57.861Z,46.79086
2022-07-28T11:41:59.369Z,45.83917
2022-07-28T11:47:01.889Z,43.86551
2022-07-28T11:52:03.351Z,44.85983
2022-07-28T11:57:05.273Z,45.90119
2022-07-28T12:02:06.903Z,45.0666
2022-07-28T12:07:08.378Z,44.55957
2022-07-28T12:12:10.945Z,46.92255
2022-07-28T12:17:13.162Z,46.86164
2022-07-28T12:22:16.212Z,45.76349
2022-07-28T12:27:17.678Z,43.99552
2022-07-28T12:32:19.820Z,44.56152
2022-07-28T12:37:21.369Z,45.19684
2022-07-28T12:42:22.834Z,45.23274
2022-07-28T12:47:24.584Z,44.24141
2022-07-28T12:52:26.233Z,46.49941
2022-07-28T12:57:27.904Z,47.26189
2022-07-28T13:02:29.650Z,48.65893
2022-07-28T13:07:31.534Z,49.58462
2022-07-28T13:12:33.013Z,49.46244
2022-07-28T13:17:35.199Z,49.32398
2022-07-28T13:22:36.761Z,51.63994
2022-07-28T13:27:38.252Z,51.55101
2022-07-28T13:32:40.096Z,52.40882
2022-07-28T13:37:43.450Z,51.62353
2022-07-28T13:42:53.176Z,51.70912
2022-07-28T13:47:58.889Z,51.87272
2022-07-28T13:53:00.337Z,50.83519
2022-07-28T13:58:08.247Z,50.44272
2022-07-28T14:03:10.661Z,49.75948
2022-07-28T14:08:13.263Z,48.13733
2022-07-28T14:13:14.690Z,47.1953
2022-07-28T14:18:16.714Z,46.97951
2022-07-28T14:23:18.242Z,47.11293
2022-07-28T14:28:19.781Z,46.31941
2022-07-28T14:33:21.640Z,46.1006
2022-07-28T14:38:52.506Z,44.97771
2022-07-28T14:43:55.368Z,46.03858
2022-07-28T14:48:57.467Z,45.23679
2022-07-28T14:53:58.954Z,47.02228
2022-07-28T14:59:00.438Z,45.08702
2022-07-28T15:04:02.221Z,44.67721
2022-07-28T15:09:03.886Z,45.73751
2022-07-28T15:14:05.466Z,45.37677
2022-07-28T15:19:07.266Z,46.13394
2022-07-28T15:24:08.804Z,46.91337
2022-07-28T15:29:10.278Z,46.48595
2022-07-28T15:34:13.277Z,46.12751
2022-07-28T15:39:15.035Z,46.12363
2022-07-28T15:44:17.122Z,45.56778
2022-07-28T15:49:27.592Z,44.67549
2022-07-28T15:54:29.078Z,43.17848
2022-07-28T15:59:49.958Z,42.77493
2022-07-28T16:04:54.364Z,38.21984
2022-07-28T16:09:56.328Z,36.8486
2022-07-28T16:14:57.794Z,35.19062
2022-07-28T16:20:02.490Z,34.34159
2022-07-28T16:25:04.355Z,34.45259
2022-07-28T16:30:05.973Z,34.3568
2022-07-28T16:35:07.437Z,36.66601
2022-07-28T16:40:08.891Z,34.29521
2022-07-28T16:45:10.434Z,34.82532
2022-07-28T16:50:12.315Z,35.26774
2022-07-28T16:55:16.125Z,36.83929
2022-07-28T17:00:20.749Z,39.17171
2022-07-28T17:05:22.397Z,37.63281
2022-07-28T17:10:27.174Z,38.60811
2022-07-28T17:15:29.292Z,40.40759
2022-07-28T17:20:31.072Z,40.27071
2022-07-28T17:25:59.215Z,38.66009
2022-07-28T17:31:22.802Z,39.12322
2022-07-28T17:36:24.623Z,40.57062
2022-07-28T17:41:26.064Z,40.06577
2022-07-28T17:46:27.638Z,40.38028
2022-07-28T17:51:29.550Z,41.64896
2022-07-28T17:56:31.229Z,42.745
2022-07-28T18:01:32.836Z,42.80199
2022-07-28T18:06:35.247Z,42.53843
2022-07-28T18:11:55.279Z,43.82383
2022-07-28T18:16:57.933Z,44.74779
2022-07-28T18:21:59.709Z,46.73684
2022-07-28T18:27:01.293Z,47.90401
2022-07-28T18:32:02.724Z,48.18031
2022-07-28T18:37:04.444Z,49.6602
2022-07-28T18:42:06.083Z,48.96691
2022-07-28T18:47:07.524Z,50.21073
2022-07-28T18:52:09.449Z,49.76653
2022-07-28T18:57:10.935Z,51.77295
2022-07-28T19:02:12.600Z,52.00879
2022-07-28T19:07:14.416Z,52.61632
2022-07-28T19:12:15.975Z,52.98575
2022-07-28T19:17:17.406Z,52.25376
2022-07-28T19:22:19.115Z,54.33546
2022-07-28T19:27:20.557Z,54.31456
2022-07-28T19:32:22.006Z,54.68319
2022-07-28T19:37:23.434Z,54.41141
2022-07-28T19:42:24.987Z,53.96458
2022-07-28T19:47:26.551Z,53.97932
2022-07-28T19:52:28.255Z,55.13388
2022-07-28T19:57:29.726Z,54.30973
2022-07-28T20:02:31.207Z,54.59011
2022-07-28T20:07:32.820Z,55.04367
2022-07-28T20:12:36.595Z,57.41936
2022-07-28T20:17:39.739Z,56.26779
2022-07-28T20:22:41.891Z,57.61031
2022-07-28T20:27:43.414Z,56.68068
2022-07-28T20:32:44.873Z,55.70459
2022-07-28T20:37:46.511Z,57.61868
2022-07-28T20:42:52.849Z,58.00539
2022-07-28T20:47:54.636Z,61.26143
2022-07-28T20:52:56.491Z,58.86164
2022-07-28T20:57:58.068Z,58.90375
2022-07-28T21:02:59.662Z,58.29024
2022-07-28T21:08:05.696Z,59.3441
2022-07-28T21:13:10.534Z,60.82562
2022-07-28T21:18:12.307Z,61.63934
2022-07-28T21:23:17.561Z,62.23391
2022-07-28T21:28:19.141Z,64.16865
2022-07-28T21:33:22.853Z,62.9319
2022-07-28T21:38:24.710Z,61.79186
2022-07-28T21:43:26.358Z,62.61638
2022-07-28T21:48:27.843Z,64.12971
2022-07-28T21:53:29.833Z,61.7282
2022-07-28T21:58:31.320Z,61.92799
2022-07-28T22:03:33.381Z,62.40898
2022-07-28T22:08:35.058Z,61.35951
2022-07-28T22:13:36.641Z,60.30228
2022-07-28T22:18:38.196Z,60.82676
2022-07-28T22:23:40.091Z,59.80622
2022-07-28T22:28:41.850Z,60.34324
2022-07-28T22:33:43.534Z,60.44642
2022-07-28T22:38:45.445Z,60.92373
2022-07-28T22:43:47.408Z,62.18006
2022-07-28T22:48:49.043Z,61.8312
2022-07-28T22:53:50.989Z,61.05655
2022-07-28T22:58:52.553Z,61.47514
2022-07-28T23:03:54.199Z,60.81017
2022-07-28T23:08:55.991Z,61.42474
2022-07-28T23:13:57.933Z,63.882
2022-07-28T23:18:59.755Z,63.31129
2022-07-28T23:24:01.685Z,64.73675
2022-07-28T23:29:03.472Z,67.31027
2022-07-28T23:34:04.970Z,66.06491
2022-07-28T23:39:06.838Z,64.03174
2022-07-28T23:44:08.909Z,63.96671
2022-07-28T23:49:10.588Z,64.28537
2022-07-28T23:54:14.275Z,65.01948
2022-07-28T23:59:16.649Z,65.82672
